Terminal Aerodrome Forecast
Issued by NWS

Home | Current Version | Previous Version | Text Only | Print | Product List | Glossary On
Versions: 1 2 3 4 5 6 7 8 9 10 11 12 13 14 15 16 17 18 19 20 21 22
000
FTUS46 KEKA 032003 AAA
TAFCEC
TAF AMD
KCEC 032003Z 0320/0418 33014G24KT P6SM SKC
     FM040300 34011KT P6SM FEW008
     FM040900 01007KT P6SM SCT008
     FM041500 33012KT P6SM FEW008=

USA.gov is the U.S. government's official web portal to all federal, state and local government web resources and services.